Time;durP1;ratioP1;P1;durP2;ratioP2;P2;SDS_P1;SDS_P2;PMS_P1;PMS_P2;Temp;Humidity;BMP_temperature;BMP_pressure;BME280_temperature;BME280_humidity;BME280_pressure;Samples;Min_cycle;Max_cycle;Signal;HPM_P1;HPM_P2
2022/07/29 00:00:12;;;;;;;12.65;4.32;;;28.20;72.50;;;;;;5067442;28;20045;-79
2022/07/29 00:02:38;;;;;;;12.27;4.57;;;28.20;72.30;;;;;;5057261;28;20112;-74
2022/07/29 00:05:07;;;;;;;14.65;4.57;;;28.20;72.30;;;;;;5058730;28;20162;-77
2022/07/29 00:07:33;;;;;;;10.90;3.90;;;28.20;72.40;;;;;;5054293;28;20494;-75
2022/07/29 00:09:59;;;;;;;12.57;4.10;;;28.20;71.10;;;;;;5053485;28;20067;-77
2022/07/29 00:12:25;;;;;;;10.57;3.88;;;28.20;72.30;;;;;;5053832;28;20028;-71
2022/07/29 00:14:52;;;;;;;12.18;4.60;;;28.10;72.20;;;;;;5052320;28;20119;-74
2022/07/29 00:17:17;;;;;;;11.80;4.18;;;28.20;72.70;;;;;;5051973;28;20047;-75
2022/07/29 00:19:43;;;;;;;15.48;4.45;;;28.20;72.90;;;;;;5053195;28;20437;-76
2022/07/29 00:22:09;;;;;;;13.90;4.82;;;28.10;73.30;;;;;;5051868;28;20029;-78
2022/07/29 00:24:36;;;;;;;15.57;3.90;;;28.10;73.60;;;;;;5053134;28;20029;-79
2022/07/29 00:27:01;;;;;;;13.07;4.43;;;28.10;71.80;;;;;;5053432;28;20025;-79
2022/07/29 00:29:27;;;;;;;16.13;4.30;;;28.10;72.40;;;;;;5053486;28;20021;-78
2022/07/29 00:31:52;;;;;;;14.95;3.83;;;28.10;73.10;;;;;;5054327;28;20025;-74
2022/07/29 00:37:03;;;;;;;14.57;4.57;;;28.10;72.00;;;;;;5053205;28;20044;-77
2022/07/29 00:39:29;;;;;;;20.27;4.90;;;28.00;73.30;;;;;;5054187;28;20025;-79
2022/07/29 00:41:55;;;;;;;18.45;4.47;;;28.00;73.80;;;;;;5053860;28;20036;-79
2022/07/29 00:44:22;;;;;;;13.77;4.18;;;28.00;72.80;;;;;;5054180;28;20045;-75
2022/07/29 00:46:54;;;;;;;10.63;3.85;;;28.00;72.60;;;;;;5053166;28;20033;-77
2022/07/29 00:49:21;;;;;;;10.05;3.85;;;28.00;72.00;;;;;;5056965;28;20497;-76
2022/07/29 00:51:48;;;;;;;14.95;4.15;;;28.00;71.50;;;;;;5061644;28;20027;-74
2022/07/29 00:54:15;;;;;;;12.95;4.68;;;28.00;71.70;;;;;;5056960;28;20116;-76
2022/07/29 00:56:42;;;;;;;16.13;4.95;;;28.00;73.10;;;;;;5053102;28;20070;-75
2022/07/29 00:59:07;;;;;;;14.38;4.90;;;28.00;73.20;;;;;;5052958;28;20498;-75
2022/07/29 01:01:34;;;;;;;10.93;4.25;;;28.00;73.20;;;;;;5051517;28;20074;-77
2022/07/29 01:04:00;;;;;;;16.10;4.90;;;28.00;72.70;;;;;;5052656;28;20037;-78
2022/07/29 01:06:26;;;;;;;9.75;4.72;;;27.90;72.80;;;;;;5052626;28;20029;-74
2022/07/29 01:08:52;;;;;;;12.32;4.78;;;27.80;73.30;;;;;;5051350;28;20029;-76
2022/07/29 01:11:19;;;;;;;11.68;4.57;;;27.80;73.40;;;;;;5050722;28;20025;-77
2022/07/29 01:13:53;;;;;;;12.27;4.68;;;27.70;72.90;;;;;;5051308;28;20091;-76
2022/07/29 01:16:31;;;;;;;9.95;4.65;;;27.70;72.70;;;;;;5052244;28;20045;-75
2022/07/29 01:19:06;;;;;;;14.57;4.65;;;27.60;72.30;;;;;;5051523;28;20036;-74
2022/07/29 01:21:53;;;;;;;11.38;4.35;;;27.60;72.70;;;;;;5035608;28;20029;-77
2022/07/29 01:24:47;;;;;;;16.88;5.53;;;27.70;72.10;;;;;;5052654;28;20589;-73
2022/07/29 01:27:39;;;;;;;14.35;5.35;;;27.70;72.90;;;;;;5051017;28;20029;-74
2022/07/29 01:30:06;;;;;;;12.02;4.93;;;27.60;71.90;;;;;;5055882;28;20064;-74
2022/07/29 01:32:36;;;;;;;13.60;4.68;;;27.60;72.20;;;;;;5055408;28;20096;-75
2022/07/29 01:35:18;;;;;;;12.10;5.45;;;27.60;71.70;;;;;;5056760;28;20471;-77
2022/07/29 01:37:50;;;;;;;11.15;4.90;;;27.50;71.50;;;;;;5055257;28;20161;-75
2022/07/29 01:40:49;;;;;;;13.70;4.88;;;27.50;72.40;;;;;;5056418;28;20032;-75
2022/07/29 01:43:21;;;;;;;9.82;4.55;;;27.50;71.40;;;;;;5056401;28;20021;-75
2022/07/29 01:46:03;;;;;;;11.25;4.75;;;27.50;71.80;;;;;;5056229;28;20489;-76
2022/07/29 01:48:59;;;;;;;16.25;4.95;;;27.40;71.40;;;;;;5056283;28;20104;-74
2022/07/29 01:51:43;;;;;;;16.15;4.82;;;27.40;71.30;;;;;;5039053;28;20120;-79
2022/07/29 01:54:16;;;;;;;11.07;4.43;;;27.40;71.20;;;;;;5055040;28;20025;-78
2022/07/29 01:56:45;;;;;;;14.10;4.95;;;27.50;71.30;;;;;;5056303;28;20029;-76
2022/07/29 01:59:14;;;;;;;11.75;4.20;;;27.50;71.50;;;;;;5056214;28;20049;-78
2022/07/29 02:01:43;;;;;;;13.43;4.97;;;27.40;70.70;;;;;;5057808;28;20541;-77
2022/07/29 02:04:12;;;;;;;9.68;4.38;;;27.40;70.90;;;;;;5058701;28;20044;-78
2022/07/29 02:06:40;;;;;;;13.23;4.85;;;27.40;71.20;;;;;;5056736;28;20024;-77
2022/07/29 02:09:11;;;;;;;10.20;4.82;;;27.40;71.10;;;;;;5056133;28;20025;-77
2022/07/29 02:11:38;;;;;;;11.60;4.45;;;27.40;71.00;;;;;;5056091;28;20032;-77
2022/07/29 02:14:07;;;;;;;9.70;4.07;;;27.40;70.30;;;;;;5054599;28;20035;-76
2022/07/29 02:16:34;;;;;;;12.52;4.95;;;27.30;70.30;;;;;;5055783;28;20039;-78
2022/07/29 02:19:02;;;;;;;9.05;3.97;;;27.30;70.40;;;;;;5055856;28;20047;-78
2022/07/29 02:21:29;;;;;;;10.50;4.13;;;27.30;70.50;;;;;;5055935;28;20033;-76
2022/07/29 02:23:59;;;;;;;12.20;4.70;;;27.40;70.60;;;;;;5056398;28;20117;-77
2022/07/29 02:26:26;;;;;;;10.60;4.50;;;27.50;70.40;;;;;;5037713;28;20438;-79
2022/07/29 02:28:57;;;;;;;13.90;4.43;;;27.40;70.30;;;;;;5055850;28;20037;-74
2022/07/29 02:31:32;;;;;;;10.30;4.15;;;27.40;70.10;;;;;;5055508;28;20075;-71
2022/07/29 02:33:59;;;;;;;12.80;4.43;;;27.40;70.10;;;;;;5055406;28;20033;-73
2022/07/29 02:36:26;;;;;;;11.05;3.90;;;27.40;69.80;;;;;;5057881;28;20024;-73
2022/07/29 02:38:57;;;;;;;13.43;4.35;;;27.40;69.60;;;;;;5060690;28;20471;-74
2022/07/29 02:41:37;;;;;;;13.57;4.60;;;27.40;69.80;;;;;;5058144;28;20561;-76
2022/07/29 02:44:10;;;;;;;12.88;4.20;;;27.40;69.40;;;;;;5056277;28;20450;-76
2022/07/29 02:47:03;;;;;;;12.10;4.60;;;27.40;69.60;;;;;;5055810;28;20111;-74
2022/07/29 02:49:40;;;;;;;16.77;4.60;;;27.30;69.70;;;;;;5034201;28;20056;-77
2022/07/29 02:52:48;;;;;;;11.18;4.20;;;27.30;69.60;;;;;;5055128;28;20434;-77
2022/07/29 02:55:34;;;;;;;11.63;4.63;;;27.30;70.30;;;;;;5055429;28;20048;-77
2022/07/29 02:58:31;;;;;;;12.38;4.53;;;27.30;69.60;;;;;;5055161;28;20033;-73
2022/07/29 03:01:02;;;;;;;19.13;5.25;;;27.30;69.70;;;;;;5055076;28;20040;-77
2022/07/29 03:03:37;;;;;;;11.68;4.88;;;27.30;69.80;;;;;;5055091;28;20497;-74
2022/07/29 03:06:06;;;;;;;12.73;4.45;;;27.30;69.70;;;;;;5054796;28;20112;-78
2022/07/29 03:08:34;;;;;;;11.50;4.57;;;27.30;69.80;;;;;;5055612;28;20036;-77
2022/07/29 03:11:01;;;;;;;12.02;4.75;;;27.30;69.90;;;;;;5057646;28;20039;-79
2022/07/29 03:13:29;;;;;;;9.00;4.60;;;27.30;69.80;;;;;;5060382;28;20029;-77
2022/07/29 03:15:57;;;;;;;13.52;4.80;;;27.30;70.00;;;;;;5056944;28;20031;-77
2022/07/29 03:18:24;;;;;;;14.40;4.80;;;27.30;70.10;;;;;;5054686;28;20037;-76
2022/07/29 03:20:50;;;;;;;15.73;5.05;;;27.30;70.40;;;;;;5054856;28;20047;-73
2022/07/29 03:23:22;;;;;;;16.80;4.68;;;27.30;70.40;;;;;;5054689;28;20424;-75
2022/07/29 03:25:49;;;;;;;13.38;5.85;;;27.20;70.60;;;;;;5053569;28;20033;-77
2022/07/29 03:28:17;;;;;;;12.45;4.97;;;27.30;70.60;;;;;;5053511;28;20029;-75
2022/07/29 03:30:43;;;;;;;17.02;5.25;;;27.30;69.90;;;;;;5054481;28;20086;-74
2022/07/29 03:33:09;;;;;;;13.23;5.25;;;27.30;70.00;;;;;;5054417;28;20127;-75
2022/07/29 03:35:36;;;;;;;15.18;5.40;;;27.30;70.00;;;;;;5054202;28;20053;-76
2022/07/29 03:38:02;;;;;;;12.75;5.28;;;27.20;69.80;;;;;;5053218;28;20028;-79
2022/07/29 03:40:53;;;;;;;20.50;6.20;;;27.20;70.10;;;;;;5054423;28;20017;-77
2022/07/29 03:43:23;;;;;;;16.17;6.57;;;27.10;69.70;;;;;;5054352;28;20033;-76
2022/07/29 03:45:52;;;;;;;17.67;6.60;;;27.10;70.10;;;;;;5053051;28;20502;-77
2022/07/29 03:48:21;;;;;;;17.33;6.43;;;27.00;70.10;;;;;;5052808;28;20029;-75
2022/07/29 03:50:46;;;;;;;13.77;6.13;;;27.00;70.50;;;;;;5052623;28;20086;-77
2022/07/29 03:53:14;;;;;;;11.77;6.07;;;26.90;70.40;;;;;;5053752;28;20029;-74
2022/07/29 03:55:46;;;;;;;12.27;5.70;;;26.80;70.40;;;;;;5054071;28;20029;-73
2022/07/29 03:58:14;;;;;;;13.57;5.22;;;26.80;70.70;;;;;;5053711;28;20091;-76
2022/07/29 04:00:43;;;;;;;11.65;5.05;;;26.80;70.50;;;;;;5052936;28;20041;-77
2022/07/29 04:03:09;;;;;;;8.88;4.93;;;26.90;70.50;;;;;;5054491;28;20032;-75
2022/07/29 04:05:35;;;;;;;16.70;6.07;;;26.80;70.10;;;;;;5053727;28;20501;-77
2022/07/29 04:08:00;;;;;;;12.20;5.32;;;26.80;70.10;;;;;;5052551;28;20060;-77
2022/07/29 04:10:26;;;;;;;12.32;5.32;;;26.80;70.10;;;;;;5053779;28;20545;-74
2022/07/29 04:12:52;;;;;;;13.55;5.55;;;26.80;70.00;;;;;;5053657;28;20048;-76
2022/07/29 04:15:18;;;;;;;12.82;5.60;;;26.80;70.10;;;;;;5052059;28;20025;-74
2022/07/29 04:17:44;;;;;;;13.50;5.68;;;26.70;70.10;;;;;;5053494;28;20466;-73
2022/07/29 04:20:12;;;;;;;17.83;6.68;;;26.70;70.30;;;;;;5053714;28;20036;-77
2022/07/29 04:22:39;;;;;;;15.90;5.97;;;26.70;70.50;;;;;;5053774;28;20078;-75
2022/07/29 04:25:07;;;;;;;11.98;5.65;;;26.70;70.70;;;;;;5053350;28;20086;-76
2022/07/29 04:27:35;;;;;;;13.50;5.78;;;26.70;70.90;;;;;;5053635;28;20017;-78
2022/07/29 04:30:01;;;;;;;10.95;5.05;;;26.70;70.80;;;;;;5053241;28;20029;-73
2022/07/29 04:32:27;;;;;;;13.70;5.22;;;26.80;70.90;;;;;;5053313;28;20044;-76
2022/07/29 04:34:53;;;;;;;16.75;6.03;;;26.80;70.60;;;;;;5053147;28;20090;-74
2022/07/29 04:37:19;;;;;;;13.55;4.88;;;26.90;70.70;;;;;;5053415;28;20040;-75
2022/07/29 04:39:45;;;;;;;11.85;5.53;;;26.90;70.60;;;;;;5052897;28;20064;-79
2022/07/29 04:42:11;;;;;;;17.73;6.28;;;26.80;70.60;;;;;;5053064;28;20020;-78
2022/07/29 04:44:37;;;;;;;17.33;6.07;;;26.80;70.50;;;;;;5052943;28;20040;-72
2022/07/29 04:47:03;;;;;;;12.20;5.72;;;26.80;70.80;;;;;;5052016;28;20444;-76
2022/07/29 04:49:30;;;;;;;19.05;6.45;;;26.80;70.80;;;;;;5053539;28;20596;-76
2022/07/29 04:51:56;;;;;;;17.33;6.13;;;26.70;70.90;;;;;;5053762;28;20021;-72
2022/07/29 04:54:22;;;;;;;13.95;6.03;;;26.70;71.20;;;;;;5053127;28;20508;-75
2022/07/29 04:56:48;;;;;;;16.48;6.40;;;26.70;71.70;;;;;;5053005;28;20096;-76
2022/07/29 04:59:14;;;;;;;15.32;6.43;;;26.60;71.70;;;;;;5053058;28;20048;-71
2022/07/29 05:01:40;;;;;;;15.48;5.65;;;26.70;71.70;;;;;;5052009;28;20025;-76
2022/07/29 05:04:05;;;;;;;13.10;5.63;;;26.70;71.60;;;;;;5052374;28;20087;-72
2022/07/29 05:06:32;;;;;;;20.27;5.63;;;26.80;71.80;;;;;;5053728;28;20025;-75
2022/07/29 05:08:57;;;;;;;10.10;5.68;;;26.80;71.40;;;;;;5052691;28;20064;-77
2022/07/29 05:11:23;;;;;;;13.50;5.80;;;26.70;71.40;;;;;;5053336;28;20064;-77
2022/07/29 05:13:50;;;;;;;13.60;5.32;;;26.70;71.80;;;;;;5065798;28;20021;-75
2022/07/29 05:16:15;;;;;;;12.68;5.43;;;26.80;71.60;;;;;;5068470;28;20051;-77
2022/07/29 05:18:41;;;;;;;12.07;5.30;;;26.90;71.60;;;;;;5055291;28;20025;-75
2022/07/29 05:21:07;;;;;;;15.52;5.70;;;27.00;71.40;;;;;;5053139;28;20025;-77
2022/07/29 05:23:33;;;;;;;13.88;5.15;;;27.10;71.00;;;;;;5052833;28;20071;-80
2022/07/29 05:25:58;;;;;;;11.60;5.55;;;27.40;70.30;;;;;;5052743;28;20032;-78
2022/07/29 05:28:24;;;;;;;12.95;5.63;;;27.60;69.70;;;;;;5052792;28;20417;-78
2022/07/29 05:30:50;;;;;;;14.40;5.35;;;27.90;68.90;;;;;;5052802;28;20040;-75
2022/07/29 05:33:15;;;;;;;14.68;5.40;;;28.30;68.00;;;;;;5052776;28;20021;-75
2022/07/29 05:35:41;;;;;;;13.63;4.82;;;28.70;67.10;;;;;;5052956;28;20154;-78
2022/07/29 05:38:08;;;;;;;14.30;4.68;;;29.00;65.90;;;;;;5053792;28;20143;-80
2022/07/29 05:40:34;;;;;;;12.43;4.65;;;29.20;65.30;;;;;;5052939;28;20021;-71
2022/07/29 05:43:00;;;;;;;13.15;4.40;;;29.50;63.90;;;;;;5052908;28;20029;-73
2022/07/29 05:45:26;;;;;;;15.95;5.03;;;29.80;63.50;;;;;;5052062;28;20119;-73
2022/07/29 05:47:51;;;;;;;14.50;4.85;;;29.90;62.60;;;;;;5051203;28;20335;-73
2022/07/29 05:50:18;;;;;;;19.33;6.10;;;30.00;62.30;;;;;;5052307;28;20457;-71
2022/07/29 05:52:44;;;;;;;14.27;4.63;;;30.00;61.80;;;;;;5068374;28;20051;-73
2022/07/29 05:55:10;;;;;;;21.48;5.40;;;30.20;61.80;;;;;;5072229;28;20021;-71
2022/07/29 05:57:36;;;;;;;12.52;4.40;;;30.40;60.70;;;;;;5072151;28;20052;-72
2022/07/29 06:00:02;;;;;;;13.65;4.20;;;30.70;60.00;;;;;;5072570;28;20045;-79
2022/07/29 06:02:31;;;;;;;13.00;4.78;;;31.00;59.30;;;;;;5072841;28;20044;-77
2022/07/29 06:04:57;;;;;;;13.52;4.82;;;31.30;58.80;;;;;;5072252;28;20052;-76
2022/07/29 06:07:25;;;;;;;17.30;4.95;;;31.60;58.10;;;;;;5074956;28;20086;-79
2022/07/29 06:09:51;;;;;;;11.80;4.40;;;31.90;56.20;;;;;;5073308;28;20028;-80
2022/07/29 06:12:17;;;;;;;11.60;4.22;;;32.10;57.20;;;;;;5073775;28;20460;-75
2022/07/29 06:14:42;;;;;;;14.25;3.97;;;32.00;56.90;;;;;;5073088;28;20052;-79
2022/07/29 06:17:08;;;;;;;12.48;4.68;;;32.30;56.80;;;;;;5075871;28;20052;-78
2022/07/29 06:19:36;;;;;;;12.48;4.40;;;32.50;56.10;;;;;;5076161;28;20052;-76
2022/07/29 06:22:03;;;;;;;11.43;4.35;;;32.70;55.90;;;;;;5075507;28;20465;-76
2022/07/29 06:24:29;;;;;;;12.73;4.20;;;32.90;54.20;;;;;;5075395;28;20488;-77
2022/07/29 06:26:56;;;;;;;13.82;4.38;;;32.90;55.40;;;;;;5071037;28;20057;-76
2022/07/29 06:29:21;;;;;;;15.02;4.72;;;33.00;54.00;;;;;;5069512;28;20407;-76
2022/07/29 06:31:47;;;;;;;15.07;4.80;;;33.10;54.60;;;;;;5062518;28;20024;-74
2022/07/29 06:34:13;;;;;;;15.23;5.38;;;33.30;54.40;;;;;;5064436;28;20029;-77
2022/07/29 06:36:39;;;;;;;16.90;5.07;;;33.50;54.20;;;;;;5054131;28;20032;-78
2022/07/29 06:39:08;;;;;;;17.45;4.53;;;33.60;53.60;;;;;;5054307;28;20108;-76
2022/07/29 06:41:35;;;;;;;17.73;6.82;;;33.70;53.50;;;;;;5055904;28;20024;-75
2022/07/29 06:44:01;;;;;;;12.45;4.97;;;33.80;53.20;;;;;;5054204;28;20033;-74
2022/07/29 06:46:27;;;;;;;21.02;5.63;;;33.90;53.10;;;;;;5054973;28;20043;-72
2022/07/29 06:48:53;;;;;;;18.33;5.43;;;34.00;52.90;;;;;;5055918;28;20033;-76
2022/07/29 06:51:20;;;;;;;13.65;4.45;;;34.10;52.80;;;;;;5054968;28;20049;-76
2022/07/29 06:53:46;;;;;;;15.80;4.43;;;34.20;52.50;;;;;;5055527;28;20046;-73
2022/07/29 06:56:13;;;;;;;13.43;4.32;;;34.20;52.40;;;;;;5055663;28;20065;-76
2022/07/29 06:58:39;;;;;;;11.55;4.70;;;34.20;52.40;;;;;;5058716;28;20040;-76
2022/07/29 07:01:06;;;;;;;13.15;4.70;;;34.20;52.20;;;;;;5076353;28;20024;-78
2022/07/29 07:03:32;;;;;;;13.65;4.53;;;34.20;52.40;;;;;;5076196;28;20027;-76
2022/07/29 07:05:58;;;;;;;17.38;5.60;;;34.30;52.00;;;;;;5074767;28;20025;-75
2022/07/29 07:08:24;;;;;;;22.48;6.53;;;34.40;52.00;;;;;;5074669;28;20390;-73
2022/07/29 07:10:51;;;;;;;23.33;6.88;;;34.40;51.80;;;;;;5074813;28;20024;-77
2022/07/29 07:13:19;;;;;;;16.98;5.20;;;34.50;51.60;;;;;;5074478;28;20031;-78
2022/07/29 07:15:48;;;;;;;17.75;5.43;;;34.50;50.60;;;;;;5074562;28;20017;-79
2022/07/29 07:18:15;;;;;;;11.95;4.07;;;34.50;51.40;;;;;;5074520;28;20098;-81
2022/07/29 07:20:41;;;;;;;12.43;4.75;;;34.60;51.30;;;;;;5074028;28;20017;-79
2022/07/29 07:23:06;;;;;;;16.42;4.68;;;34.60;51.10;;;;;;5074871;28;20024;-80
2022/07/29 07:25:32;;;;;;;17.73;6.82;;;34.50;51.60;;;;;;5074330;28;20036;-79
2022/07/29 07:27:58;;;;;;;13.40;4.93;;;34.40;51.10;;;;;;5073493;28;20025;-79
2022/07/29 07:30:24;;;;;;;11.52;4.30;;;34.40;51.10;;;;;;5074765;28;20052;-80
2022/07/29 07:32:49;;;;;;;14.40;5.18;;;34.20;51.00;;;;;;5074444;28;20020;-81
2022/07/29 07:35:15;;;;;;;20.85;7.47;;;34.00;51.30;;;;;;5056040;28;20097;-80
2022/07/29 07:37:42;;;;;;;16.42;5.97;;;33.90;51.50;;;;;;5074546;28;20035;-82
2022/07/29 07:40:11;;;;;;;18.10;5.10;;;33.90;50.90;;;;;;5074791;28;20361;-82
2022/07/29 07:42:37;;;;;;;22.80;6.03;;;33.90;51.20;;;;;;5074583;28;20468;-80
2022/07/29 07:45:04;;;;;;;8.70;3.33;;;34.10;51.60;;;;;;5074967;28;20438;-83
2022/07/29 07:47:30;;;;;;;18.38;5.15;;;34.10;50.90;;;;;;5066122;28;20036;-80
2022/07/29 07:49:56;;;;;;;13.57;5.07;;;34.00;51.30;;;;;;5088834;28;20020;-80
2022/07/29 07:52:22;;;;;;;17.33;6.75;;;34.00;51.10;;;;;;5079753;28;20023;-78
2022/07/29 07:54:48;;;;;;;14.90;4.80;;;34.00;51.20;;;;;;5074853;28;20100;-77
2022/07/29 07:57:15;;;;;;;14.48;4.80;;;34.00;51.00;;;;;;5056474;28;20028;-76
2022/07/29 07:59:41;;;;;;;19.38;7.05;;;34.00;52.50;;;;;;5073962;28;20044;-74
2022/07/29 08:02:09;;;;;;;10.48;3.97;;;34.00;51.00;;;;;;5073841;28;20151;-75
2022/07/29 08:04:35;;;;;;;18.15;6.22;;;34.00;50.90;;;;;;5073858;28;20100;-76
2022/07/29 08:07:01;;;;;;;19.67;7.45;;;33.90;50.70;;;;;;5074040;28;20421;-78
2022/07/29 08:09:28;;;;;;;16.05;6.45;;;33.90;51.10;;;;;;5073798;28;20397;-76
2022/07/29 08:11:55;;;;;;;11.52;3.80;;;33.80;50.90;;;;;;5073615;28;20066;-77
2022/07/29 08:14:20;;;;;;;20.90;5.45;;;33.80;51.00;;;;;;5073251;28;20031;-75
2022/07/29 08:16:48;;;;;;;13.27;6.18;;;33.60;51.20;;;;;;5073984;28;20024;-76
2022/07/29 08:19:14;;;;;;;16.65;6.80;;;33.60;51.30;;;;;;5073329;28;20082;-76
2022/07/29 08:21:40;;;;;;;12.30;4.32;;;33.50;51.30;;;;;;5073348;28;20514;-77
2022/07/29 08:26:51;;;;;;;17.17;6.57;;;33.30;51.20;;;;;;5073789;28;20557;-76
2022/07/29 08:29:19;;;;;;;16.67;6.90;;;33.30;51.80;;;;;;5073391;28;20092;-75
2022/07/29 08:31:50;;;;;;;12.63;4.40;;;33.20;51.40;;;;;;5073898;28;20032;-75
2022/07/29 08:34:16;;;;;;;12.88;5.10;;;33.10;51.10;;;;;;5056546;28;20028;-80
2022/07/29 08:36:42;;;;;;;13.32;4.47;;;33.10;51.80;;;;;;5075853;28;20060;-77
2022/07/29 08:39:08;;;;;;;17.98;7.32;;;33.00;51.40;;;;;;5074023;28;20052;-78
2022/07/29 08:41:34;;;;;;;15.05;6.35;;;32.90;51.50;;;;;;5074702;28;20030;-80
2022/07/29 08:44:00;;;;;;;13.05;5.80;;;32.90;51.60;;;;;;5066640;28;20021;-76
2022/07/29 08:46:26;;;;;;;12.98;5.00;;;32.80;51.40;;;;;;5079956;28;20074;-77
2022/07/29 08:48:55;;;;;;;17.02;7.25;;;32.70;52.40;;;;;;5055314;28;20511;-81
2022/07/29 08:51:22;;;;;;;12.27;4.53;;;32.60;51.30;;;;;;5073376;28;20028;-81
2022/07/29 08:53:50;;;;;;;10.85;3.90;;;32.60;51.20;;;;;;5072977;28;20029;-80
2022/07/29 08:56:17;;;;;;;10.75;3.17;;;32.50;51.40;;;;;;5072384;28;20121;-80
2022/07/29 08:58:45;;;;;;;10.43;3.90;;;32.40;52.80;;;;;;5072580;28;20585;-81
2022/07/29 09:01:16;;;;;;;9.20;3.58;;;32.30;52.70;;;;;;5072891;28;20060;-82
2022/07/29 09:03:44;;;;;;;11.85;3.60;;;32.20;53.30;;;;;;5072928;28;20413;-76
2022/07/29 09:06:16;;;;;;;9.57;3.97;;;32.00;52.60;;;;;;5073752;28;20111;-81
2022/07/29 09:08:44;;;;;;;9.10;3.60;;;32.00;52.70;;;;;;5074247;28;20047;-77
2022/07/29 09:11:11;;;;;;;8.25;3.95;;;32.00;52.60;;;;;;5074775;28;20036;-80
2022/07/29 09:13:37;;;;;;;9.75;3.70;;;32.00;52.60;;;;;;5058020;28;20039;-78
2022/07/29 09:16:06;;;;;;;9.20;3.80;;;32.00;52.40;;;;;;5078684;28;20025;-80
2022/07/29 09:18:36;;;;;;;11.15;4.72;;;32.00;52.30;;;;;;5081587;28;20384;-81
2022/07/29 09:24:07;;;;;;;11.30;3.80;;;32.10;52.00;;;;;;5074344;28;20555;-80
2022/07/29 09:26:35;;;;;;;11.80;4.60;;;32.10;51.80;;;;;;5074080;28;20039;-81
2022/07/29 09:29:10;;;;;;;15.90;6.85;;;32.20;52.00;;;;;;5073805;28;20151;-77
2022/07/29 09:31:39;;;;;;;17.83;4.03;;;32.30;51.80;;;;;;5054452;28;20056;-78
2022/07/29 09:34:05;;;;;;;9.95;3.63;;;32.30;51.10;;;;;;5072113;28;20074;-76
2022/07/29 09:36:45;;;;;;;10.13;3.53;;;32.30;50.60;;;;;;5071955;28;20036;-76
2022/07/29 09:39:14;;;;;;;7.57;3.22;;;32.30;49.40;;;;;;5071826;28;20027;-76
2022/07/29 09:41:54;;;;;;;10.38;3.63;;;32.20;49.40;;;;;;5072026;28;20016;-76
2022/07/29 09:44:21;;;;;;;12.80;4.00;;;32.20;50.60;;;;;;5072289;28;20044;-76
2022/07/29 09:46:58;;;;;;;8.98;3.05;;;32.30;50.20;;;;;;5054041;28;20451;-81
2022/07/29 09:49:25;;;;;;;10.68;3.60;;;32.30;50.30;;;;;;5054509;28;20193;-75
2022/07/29 09:52:20;;;;;;;7.63;3.40;;;32.30;49.70;;;;;;5075911;28;20028;-79
2022/07/29 09:54:45;;;;;;;9.05;3.70;;;32.30;49.50;;;;;;5045338;28;20041;-83
2022/07/29 09:57:27;;;;;;;10.48;3.65;;;32.40;49.10;;;;;;5076937;28;20036;-80
2022/07/29 10:00:08;;;;;;;8.93;3.15;;;32.40;48.30;;;;;;5076104;28;20044;-77
2022/07/29 10:02:38;;;;;;;14.77;3.92;;;32.40;48.30;;;;;;5075769;28;20079;-78
2022/07/29 10:05:06;;;;;;;8.15;3.13;;;32.40;48.40;;;;;;5075773;28;20024;-82
2022/07/29 10:07:48;;;;;;;8.75;3.45;;;32.40;49.20;;;;;;5076098;28;20472;-77
2022/07/29 10:10:29;;;;;;;11.05;3.90;;;32.30;49.10;;;;;;5058265;28;20060;-76
2022/07/29 10:12:57;;;;;;;13.43;4.45;;;32.30;49.10;;;;;;5057873;28;20497;-77
2022/07/29 10:15:25;;;;;;;10.52;3.65;;;32.30;49.20;;;;;;5075482;28;20024;-76
2022/07/29 10:17:53;;;;;;;9.95;3.42;;;32.30;49.10;;;;;;5076346;28;20026;-75
2022/07/29 10:20:20;;;;;;;7.93;3.20;;;32.30;48.90;;;;;;5076448;28;20047;-76
2022/07/29 10:22:47;;;;;;;16.45;6.15;;;32.40;49.00;;;;;;5075954;28;20056;-76
2022/07/29 10:25:15;;;;;;;9.38;3.55;;;32.40;49.40;;;;;;5075653;28;20037;-75
2022/07/29 10:27:42;;;;;;;12.02;4.50;;;32.50;49.00;;;;;;5076294;28;20036;-77
2022/07/29 10:30:09;;;;;;;11.48;4.93;;;32.50;49.20;;;;;;5057296;28;20115;-75
2022/07/29 10:32:49;;;;;;;7.90;3.47;;;32.50;49.60;;;;;;5075166;28;20449;-77
2022/07/29 10:35:33;;;;;;;10.32;4.13;;;32.60;48.30;;;;;;5075151;28;20029;-76
2022/07/29 10:38:04;;;;;;;9.40;3.70;;;32.70;48.30;;;;;;5075239;28;20035;-77
2022/07/29 10:43:44;;;;;;;9.88;4.38;;;32.90;47.60;;;;;;5075339;28;20111;-76
2022/07/29 10:46:11;;;;;;;9.63;3.95;;;32.90;48.10;;;;;;5056781;28;20477;-74
2022/07/29 10:49:11;;;;;;;10.20;3.63;;;32.90;48.10;;;;;;5075742;28;20029;-84
2022/07/29 10:52:07;;;;;;;12.05;4.25;;;32.90;47.40;;;;;;5076152;28;20032;-81
2022/07/29 10:54:39;;;;;;;11.15;3.55;;;33.10;47.50;;;;;;5066728;28;20524;-77
2022/07/29 10:57:29;;;;;;;11.30;3.53;;;33.10;47.10;;;;;;5074565;28;20307;-76
2022/07/29 11:00:04;;;;;;;8.68;3.50;;;33.20;47.50;;;;;;5074421;28;20086;-76
2022/07/29 11:02:32;;;;;;;10.05;3.63;;;33.10;48.00;;;;;;5074549;28;20036;-76
2022/07/29 11:04:58;;;;;;;10.77;3.78;;;33.20;48.50;;;;;;5074491;28;20068;-76
2022/07/29 11:07:30;;;;;;;8.90;3.08;;;33.30;47.50;;;;;;5077337;28;20051;-81
2022/07/29 11:10:11;;;;;;;12.97;4.90;;;33.30;46.50;;;;;;5075909;28;20025;-79
2022/07/29 11:12:37;;;;;;;8.27;3.30;;;33.30;46.80;;;;;;5075187;28;20032;-82
2022/07/29 11:15:08;;;;;;;7.82;3.63;;;33.40;46.40;;;;;;5075504;28;20035;-77
2022/07/29 11:17:56;;;;;;;10.45;3.85;;;33.40;46.10;;;;;;5074891;28;20103;-80
2022/07/29 11:20:44;;;;;;;10.68;3.60;;;33.50;46.00;;;;;;5074306;28;20083;-84
2022/07/29 11:23:31;;;;;;;13.80;3.53;;;33.70;46.10;;;;;;5075837;28;20052;-82
2022/07/29 11:26:15;;;;;;;8.05;3.60;;;33.70;46.30;;;;;;5076795;28;20029;-79
2022/07/29 11:28:55;;;;;;;9.80;3.50;;;33.80;46.70;;;;;;5077480;28;20094;-80
2022/07/29 11:31:44;;;;;;;14.15;3.92;;;33.90;46.90;;;;;;5082957;28;20138;-76
2022/07/29 11:34:20;;;;;;;13.00;3.53;;;33.90;48.10;;;;;;5077738;28;20027;-78
2022/07/29 11:37:12;;;;;;;8.68;3.40;;;33.90;49.90;;;;;;5074796;28;20063;-79
2022/07/29 11:39:53;;;;;;;11.23;4.32;;;33.90;49.40;;;;;;5074818;28;20025;-79
2022/07/29 11:42:24;;;;;;;9.57;3.88;;;34.00;51.50;;;;;;5074530;28;20020;-80
2022/07/29 11:45:00;;;;;;;9.90;3.38;;;34.10;51.90;;;;;;5074571;28;20041;-79
2022/07/29 11:47:27;;;;;;;7.43;3.42;;;34.10;50.60;;;;;;5074277;28;20099;-78
2022/07/29 11:49:54;;;;;;;11.50;4.15;;;34.20;51.60;;;;;;5056737;28;20064;-79
2022/07/29 11:52:20;;;;;;;10.50;3.47;;;34.30;52.80;;;;;;5074447;28;20023;-78
2022/07/29 11:54:50;;;;;;;12.73;3.83;;;34.20;51.70;;;;;;5074482;28;20032;-76
2022/07/29 11:57:18;;;;;;;8.80;3.17;;;34.20;51.80;;;;;;5074512;28;20016;-77
2022/07/29 11:59:45;;;;;;;12.77;3.28;;;34.20;52.20;;;;;;5073956;28;20228;-78
2022/07/29 12:02:13;;;;;;;9.48;3.88;;;34.30;53.90;;;;;;5073949;28;20421;-80
2022/07/29 12:04:48;;;;;;;8.40;3.47;;;34.30;51.80;;;;;;5074924;28;20035;-79
2022/07/29 12:07:17;;;;;;;11.98;3.67;;;34.20;53.50;;;;;;5075736;28;20066;-80
2022/07/29 12:09:53;;;;;;;10.02;3.60;;;34.20;51.80;;;;;;5056633;28;20020;-82
2022/07/29 12:12:20;;;;;;;10.93;3.40;;;34.30;51.90;;;;;;5072831;28;20052;-79
2022/07/29 12:14:46;;;;;;;7.47;3.40;;;34.30;53.10;;;;;;5056135;28;20041;-81
2022/07/29 12:17:32;;;;;;;13.80;3.53;;;34.30;53.10;;;;;;5056228;28;20069;-81
2022/07/29 12:20:04;;;;;;;11.40;3.55;;;34.30;54.00;;;;;;5056545;28;20032;-81
2022/07/29 12:22:33;;;;;;;9.00;3.22;;;34.30;52.20;;;;;;5074745;28;20013;-78
2022/07/29 12:25:04;;;;;;;10.18;3.30;;;34.20;52.80;;;;;;5075202;28;20041;-81
2022/07/29 12:27:30;;;;;;;14.32;3.80;;;34.20;52.90;;;;;;5055938;28;20024;-80
2022/07/29 12:30:00;;;;;;;10.05;3.20;;;34.20;52.20;;;;;;5074000;28;20102;-77
2022/07/29 12:32:39;;;;;;;8.88;3.47;;;34.30;52.30;;;;;;5055689;28;20029;-77
2022/07/29 12:35:07;;;;;;;11.30;3.70;;;34.40;51.60;;;;;;5073407;28;20025;-76
2022/07/29 12:37:40;;;;;;;8.07;3.20;;;34.40;52.20;;;;;;5055243;28;20504;-79
2022/07/29 12:40:08;;;;;;;6.63;2.78;;;34.40;52.10;;;;;;5038986;28;20039;-78
2022/07/29 12:42:34;;;;;;;8.27;3.20;;;34.40;52.80;;;;;;5055966;28;20082;-77
2022/07/29 12:45:02;;;;;;;8.60;3.70;;;34.40;53.40;;;;;;5074217;28;20036;-75
2022/07/29 12:47:28;;;;;;;9.32;3.22;;;34.40;52.90;;;;;;5057969;28;20099;-75
2022/07/29 12:50:14;;;;;;;10.20;3.20;;;34.40;53.20;;;;;;5077906;28;20052;-75
2022/07/29 12:52:40;;;;;;;9.95;3.47;;;34.50;53.40;;;;;;5059050;28;20561;-78
2022/07/29 12:55:07;;;;;;;6.80;3.13;;;34.50;52.80;;;;;;5054341;28;20124;-77
2022/07/29 12:57:46;;;;;;;10.48;3.35;;;34.50;51.30;;;;;;5054696;28;20028;-79
2022/07/29 13:00:22;;;;;;;6.70;3.00;;;34.50;53.50;;;;;;5072431;28;20052;-77
2022/07/29 13:02:55;;;;;;;16.33;3.83;;;34.40;53.20;;;;;;5075142;28;20339;-79